Startpagina
METAR-TAF:

METAR-TAF

Vliegvelden :

Luchthaven Tunis-Carthage

Tunis, Tunesië

breedte: 36-50N, lengte: 010-14E, hoogte: 3 m

Actueel weer

Dit bericht is 23 minuten geleden gemaakt, om 13:00 UTC
Wind 7 kt uit het zuidzuidoosten
Temperatuur 20°C
Vochtigheid 53%
Druk 1001 hPa
Zicht 10 km of meer
Verspreide wolken op 2600 ft

METAR: DTTA 191300Z 16007KT 9999 SCT026 20/10 Q1001 NOSIG

Tijdstip: 14:23 (13:23 UTC)

Verwachting

Dit bericht is 2 uur en het 23 minuten geleden gemaakt, om 11:00 UTC
Verwachting geldig van 19 om 12 UTC tot 20 om 12 UTC
Wind 10 kt uit het zuidzuidoosten
Zicht 10 km of meer
Verspreide wolken op 2300 ft
Kans 40% :
Tijdelijke
van 19 om 13 UTC tot 19 om 22 UTC
Wind 15 kt uit het zuidzuidwesten met uitschieters tot 25 kt

TAF: DTTA 191100Z 1912/2012 16010KT 9999 SCT023 PROB40 TEMPO 1913/1922 20015G25KT

Waarnemingen en weersverwachtingen van meer dan 4000 vliegvelden (METAR en TAF).

De beschikbare stations zijn de gele en rode punten op de kaart.

Ga met uw muis naar het station om de naam te zien.

Klik dan om waarnemingen en weersverwachtingen te zien.

kaart wijzigen: klik op de groene knoppen met een zwart kruis om in te zoomen, op de groene knop met een streepje om uit te zoomen of op de groene pijlen voor aangrenzende kaarten.


METAR-TAF: